sensor_id;sensor_type;location;lat;lon;timestamp;P1;durP1;ratioP1;P2;durP2;ratioP2
18681;SDS011;9471;51.168;4.154;2022-08-02T00:02:21;7.15;;;2.78;;
18681;SDS011;9471;51.168;4.154;2022-08-02T00:04:48;9.68;;;2.75;;
18681;SDS011;9471;51.168;4.154;2022-08-02T00:07:15;9.45;;;2.60;;
18681;SDS011;9471;51.168;4.154;2022-08-02T00:09:42;9.43;;;2.47;;
18681;SDS011;9471;51.168;4.154;2022-08-02T00:12:09;6.80;;;2.50;;
18681;SDS011;9471;51.168;4.154;2022-08-02T00:14:38;8.77;;;2.30;;
18681;SDS011;9471;51.168;4.154;2022-08-02T00:17:05;8.80;;;2.67;;
18681;SDS011;9471;51.168;4.154;2022-08-02T00:19:32;6.75;;;2.63;;
18681;SDS011;9471;51.168;4.154;2022-08-02T00:21:59;12.15;;;2.67;;
18681;SDS011;9471;51.168;4.154;2022-08-02T00:24:26;10.05;;;2.67;;
18681;SDS011;9471;51.168;4.154;2022-08-02T00:26:53;9.40;;;2.90;;
18681;SDS011;9471;51.168;4.154;2022-08-02T00:29:20;9.38;;;2.33;;
18681;SDS011;9471;51.168;4.154;2022-08-02T00:31:49;8.48;;;2.53;;
18681;SDS011;9471;51.168;4.154;2022-08-02T00:34:16;8.82;;;2.63;;
18681;SDS011;9471;51.168;4.154;2022-08-02T00:36:43;9.10;;;2.28;;
18681;SDS011;9471;51.168;4.154;2022-08-02T00:39:10;11.27;;;2.80;;
18681;SDS011;9471;51.168;4.154;2022-08-02T00:41:43;8.35;;;2.40;;
18681;SDS011;9471;51.168;4.154;2022-08-02T00:44:12;11.73;;;2.75;;
18681;SDS011;9471;51.168;4.154;2022-08-02T00:46:40;8.02;;;2.90;;
18681;SDS011;9471;51.168;4.154;2022-08-02T00:49:08;7.22;;;2.50;;
18681;SDS011;9471;51.168;4.154;2022-08-02T00:51:35;10.50;;;2.78;;
18681;SDS011;9471;51.168;4.154;2022-08-02T00:54:03;10.15;;;2.63;;
18681;SDS011;9471;51.168;4.154;2022-08-02T00:56:31;6.88;;;2.45;;
18681;SDS011;9471;51.168;4.154;2022-08-02T00:59:00;16.08;;;2.53;;
18681;SDS011;9471;51.168;4.154;2022-08-02T01:01:27;8.52;;;2.67;;
18681;SDS011;9471;51.168;4.154;2022-08-02T01:04:04;10.65;;;2.85;;
18681;SDS011;9471;51.168;4.154;2022-08-02T01:06:33;7.13;;;2.47;;
18681;SDS011;9471;51.168;4.154;2022-08-02T01:09:01;9.30;;;2.67;;
18681;SDS011;9471;51.168;4.154;2022-08-02T01:11:29;12.00;;;3.28;;
18681;SDS011;9471;51.168;4.154;2022-08-02T01:13:57;7.07;;;2.50;;
18681;SDS011;9471;51.168;4.154;2022-08-02T01:16:28;9.77;;;2.80;;
18681;SDS011;9471;51.168;4.154;2022-08-02T01:19:06;11.95;;;2.70;;
18681;SDS011;9471;51.168;4.154;2022-08-02T01:21:48;8.30;;;2.85;;
18681;SDS011;9471;51.168;4.154;2022-08-02T01:24:34;8.48;;;2.63;;
18681;SDS011;9471;51.168;4.154;2022-08-02T01:27:23;12.43;;;3.10;;
18681;SDS011;9471;51.168;4.154;2022-08-02T01:29:58;10.02;;;2.88;;
18681;SDS011;9471;51.168;4.154;2022-08-02T01:32:28;11.40;;;3.35;;
18681;SDS011;9471;51.168;4.154;2022-08-02T01:35:01;10.23;;;3.20;;
18681;SDS011;9471;51.168;4.154;2022-08-02T01:37:37;11.27;;;3.33;;
18681;SDS011;9471;51.168;4.154;2022-08-02T01:40:09;10.48;;;2.90;;
18681;SDS011;9471;51.168;4.154;2022-08-02T01:42:39;10.48;;;3.03;;
18681;SDS011;9471;51.168;4.154;2022-08-02T01:45:12;8.57;;;2.83;;
18681;SDS011;9471;51.168;4.154;2022-08-02T01:47:41;10.50;;;3.58;;
18681;SDS011;9471;51.168;4.154;2022-08-02T01:50:11;10.63;;;3.20;;
18681;SDS011;9471;51.168;4.154;2022-08-02T01:52:41;10.05;;;3.15;;
18681;SDS011;9471;51.168;4.154;2022-08-02T01:55:12;11.90;;;3.55;;
18681;SDS011;9471;51.168;4.154;2022-08-02T01:57:46;11.18;;;3.08;;
18681;SDS011;9471;51.168;4.154;2022-08-02T02:00:16;10.10;;;2.90;;
18681;SDS011;9471;51.168;4.154;2022-08-02T02:02:45;9.30;;;2.67;;
18681;SDS011;9471;51.168;4.154;2022-08-02T02:05:15;12.23;;;3.35;;
18681;SDS011;9471;51.168;4.154;2022-08-02T02:07:44;12.98;;;3.42;;
18681;SDS011;9471;51.168;4.154;2022-08-02T02:10:15;9.15;;;3.40;;
18681;SDS011;9471;51.168;4.154;2022-08-02T02:12:47;14.40;;;3.33;;
18681;SDS011;9471;51.168;4.154;2022-08-02T02:15:17;15.50;;;3.47;;
18681;SDS011;9471;51.168;4.154;2022-08-02T02:17:46;10.50;;;3.00;;
18681;SDS011;9471;51.168;4.154;2022-08-02T02:20:18;7.63;;;3.08;;
18681;SDS011;9471;51.168;4.154;2022-08-02T02:22:46;10.50;;;3.40;;
18681;SDS011;9471;51.168;4.154;2022-08-02T02:25:14;11.43;;;3.20;;
18681;SDS011;9471;51.168;4.154;2022-08-02T02:27:44;10.63;;;3.20;;
18681;SDS011;9471;51.168;4.154;2022-08-02T02:30:15;7.47;;;2.65;;
18681;SDS011;9471;51.168;4.154;2022-08-02T02:32:44;8.35;;;3.03;;
18681;SDS011;9471;51.168;4.154;2022-08-02T02:35:14;9.38;;;3.55;;
18681;SDS011;9471;51.168;4.154;2022-08-02T02:37:42;10.93;;;4.05;;
18681;SDS011;9471;51.168;4.154;2022-08-02T02:40:11;13.65;;;3.70;;
18681;SDS011;9471;51.168;4.154;2022-08-02T02:42:38;11.85;;;3.47;;
18681;SDS011;9471;51.168;4.154;2022-08-02T02:45:08;10.25;;;3.22;;
18681;SDS011;9471;51.168;4.154;2022-08-02T02:47:37;12.52;;;3.63;;
18681;SDS011;9471;51.168;4.154;2022-08-02T02:50:06;10.43;;;2.95;;
18681;SDS011;9471;51.168;4.154;2022-08-02T02:52:34;8.27;;;3.20;;
18681;SDS011;9471;51.168;4.154;2022-08-02T02:55:03;10.57;;;3.55;;
18681;SDS011;9471;51.168;4.154;2022-08-02T02:57:31;10.10;;;3.33;;
18681;SDS011;9471;51.168;4.154;2022-08-02T02:59:58;11.20;;;3.45;;
18681;SDS011;9471;51.168;4.154;2022-08-02T03:02:26;12.13;;;3.70;;
18681;SDS011;9471;51.168;4.154;2022-08-02T03:04:55;10.90;;;4.30;;
18681;SDS011;9471;51.168;4.154;2022-08-02T03:07:26;11.02;;;4.07;;
18681;SDS011;9471;51.168;4.154;2022-08-02T03:09:53;10.43;;;4.32;;
18681;SDS011;9471;51.168;4.154;2022-08-02T03:12:22;11.25;;;4.38;;
18681;SDS011;9471;51.168;4.154;2022-08-02T03:14:49;12.77;;;4.30;;
18681;SDS011;9471;51.168;4.154;2022-08-02T03:17:16;12.02;;;5.07;;
18681;SDS011;9471;51.168;4.154;2022-08-02T03:19:44;14.23;;;5.13;;
18681;SDS011;9471;51.168;4.154;2022-08-02T03:22:12;12.05;;;5.20;;
18681;SDS011;9471;51.168;4.154;2022-08-02T03:24:39;12.10;;;5.07;;
18681;SDS011;9471;51.168;4.154;2022-08-02T03:27:06;14.02;;;5.43;;
18681;SDS011;9471;51.168;4.154;2022-08-02T03:29:33;16.02;;;5.82;;
18681;SDS011;9471;51.168;4.154;2022-08-02T03:32:00;13.70;;;6.00;;
18681;SDS011;9471;51.168;4.154;2022-08-02T03:34:27;15.48;;;6.70;;
18681;SDS011;9471;51.168;4.154;2022-08-02T03:36:54;21.73;;;11.32;;
18681;SDS011;9471;51.168;4.154;2022-08-02T03:39:24;12.82;;;6.50;;
18681;SDS011;9471;51.168;4.154;2022-08-02T03:41:52;14.25;;;5.53;;
18681;SDS011;9471;51.168;4.154;2022-08-02T03:44:20;15.63;;;5.50;;
18681;SDS011;9471;51.168;4.154;2022-08-02T03:46:49;13.60;;;5.70;;
18681;SDS011;9471;51.168;4.154;2022-08-02T03:49:18;11.43;;;5.20;;
18681;SDS011;9471;51.168;4.154;2022-08-02T03:51:46;18.13;;;7.93;;
18681;SDS011;9471;51.168;4.154;2022-08-02T03:54:13;12.32;;;6.28;;
18681;SDS011;9471;51.168;4.154;2022-08-02T03:56:44;12.70;;;6.47;;
18681;SDS011;9471;51.168;4.154;2022-08-02T03:59:13;17.42;;;7.47;;
18681;SDS011;9471;51.168;4.154;2022-08-02T04:01:40;15.50;;;7.80;;
18681;SDS011;9471;51.168;4.154;2022-08-02T04:04:07;15.75;;;8.20;;
18681;SDS011;9471;51.168;4.154;2022-08-02T04:06:35;14.85;;;8.25;;
18681;SDS011;9471;51.168;4.154;2022-08-02T04:09:02;14.70;;;8.13;;
18681;SDS011;9471;51.168;4.154;2022-08-02T04:11:29;17.20;;;9.35;;
18681;SDS011;9471;51.168;4.154;2022-08-02T04:13:56;20.42;;;9.30;;
18681;SDS011;9471;51.168;4.154;2022-08-02T04:16:27;16.17;;;9.35;;
18681;SDS011;9471;51.168;4.154;2022-08-02T04:19:00;18.00;;;9.48;;
18681;SDS011;9471;51.168;4.154;2022-08-02T04:21:30;15.93;;;9.52;;
18681;SDS011;9471;51.168;4.154;2022-08-02T04:24:00;17.40;;;9.85;;
18681;SDS011;9471;51.168;4.154;2022-08-02T04:26:29;19.02;;;10.70;;
18681;SDS011;9471;51.168;4.154;2022-08-02T04:28:58;18.63;;;10.00;;
18681;SDS011;9471;51.168;4.154;2022-08-02T04:31:26;16.58;;;10.00;;
18681;SDS011;9471;51.168;4.154;2022-08-02T04:33:54;19.25;;;10.70;;
18681;SDS011;9471;51.168;4.154;2022-08-02T04:36:22;17.35;;;9.52;;
18681;SDS011;9471;51.168;4.154;2022-08-02T04:38:49;20.42;;;9.90;;
18681;SDS011;9471;51.168;4.154;2022-08-02T04:41:16;18.20;;;10.10;;
18681;SDS011;9471;51.168;4.154;2022-08-02T04:43:43;20.77;;;9.60;;
18681;SDS011;9471;51.168;4.154;2022-08-02T04:46:12;17.58;;;8.95;;
18681;SDS011;9471;51.168;4.154;2022-08-02T04:48:39;16.73;;;9.80;;
18681;SDS011;9471;51.168;4.154;2022-08-02T04:51:06;19.05;;;9.05;;
18681;SDS011;9471;51.168;4.154;2022-08-02T04:53:32;16.10;;;9.50;;
18681;SDS011;9471;51.168;4.154;2022-08-02T04:55:59;14.88;;;9.02;;
18681;SDS011;9471;51.168;4.154;2022-08-02T04:58:26;17.55;;;9.65;;
18681;SDS011;9471;51.168;4.154;2022-08-02T05:00:53;16.35;;;9.55;;
18681;SDS011;9471;51.168;4.154;2022-08-02T05:03:22;15.73;;;9.18;;
18681;SDS011;9471;51.168;4.154;2022-08-02T05:05:48;19.70;;;9.55;;
18681;SDS011;9471;51.168;4.154;2022-08-02T05:08:15;21.33;;;10.23;;
18681;SDS011;9471;51.168;4.154;2022-08-02T05:10:42;17.55;;;10.07;;
18681;SDS011;9471;51.168;4.154;2022-08-02T05:13:09;17.55;;;9.95;;
18681;SDS011;9471;51.168;4.154;2022-08-02T05:15:36;18.45;;;9.77;;
18681;SDS011;9471;51.168;4.154;2022-08-02T05:18:03;18.60;;;10.00;;
18681;SDS011;9471;51.168;4.154;2022-08-02T05:20:32;18.48;;;10.23;;
18681;SDS011;9471;51.168;4.154;2022-08-02T05:22:59;16.20;;;9.70;;
18681;SDS011;9471;51.168;4.154;2022-08-02T05:25:27;17.90;;;9.00;;
18681;SDS011;9471;51.168;4.154;2022-08-02T05:27:54;14.73;;;9.20;;
18681;SDS011;9471;51.168;4.154;2022-08-02T05:30:21;17.00;;;9.23;;
18681;SDS011;9471;51.168;4.154;2022-08-02T05:32:49;20.75;;;9.55;;
18681;SDS011;9471;51.168;4.154;2022-08-02T05:35:17;18.00;;;10.23;;
18681;SDS011;9471;51.168;4.154;2022-08-02T05:37:46;17.42;;;9.50;;
18681;SDS011;9471;51.168;4.154;2022-08-02T05:40:13;18.73;;;9.88;;
18681;SDS011;9471;51.168;4.154;2022-08-02T05:42:41;18.52;;;9.90;;
18681;SDS011;9471;51.168;4.154;2022-08-02T05:45:09;17.75;;;10.02;;
18681;SDS011;9471;51.168;4.154;2022-08-02T05:47:37;21.38;;;10.75;;
18681;SDS011;9471;51.168;4.154;2022-08-02T05:50:05;19.60;;;10.50;;
18681;SDS011;9471;51.168;4.154;2022-08-02T05:52:35;20.92;;;10.52;;
18681;SDS011;9471;51.168;4.154;2022-08-02T05:55:14;17.25;;;9.90;;
18681;SDS011;9471;51.168;4.154;2022-08-02T05:57:46;18.52;;;9.85;;
18681;SDS011;9471;51.168;4.154;2022-08-02T06:00:18;19.55;;;9.45;;
18681;SDS011;9471;51.168;4.154;2022-08-02T06:02:58;15.85;;;8.70;;
18681;SDS011;9471;51.168;4.154;2022-08-02T06:05:31;19.75;;;9.65;;
18681;SDS011;9471;51.168;4.154;2022-08-02T06:08:00;17.15;;;9.68;;
18681;SDS011;9471;51.168;4.154;2022-08-02T06:10:33;17.38;;;9.68;;
18681;SDS011;9471;51.168;4.154;2022-08-02T06:13:06;15.82;;;8.48;;
18681;SDS011;9471;51.168;4.154;2022-08-02T06:15:35;15.77;;;8.38;;
18681;SDS011;9471;51.168;4.154;2022-08-02T06:18:03;16.58;;;7.97;;
18681;SDS011;9471;51.168;4.154;2022-08-02T06:20:31;16.48;;;8.13;;
18681;SDS011;9471;51.168;4.154;2022-08-02T06:23:01;17.00;;;8.05;;
18681;SDS011;9471;51.168;4.154;2022-08-02T06:25:29;14.50;;;6.97;;
18681;SDS011;9471;51.168;4.154;2022-08-02T06:27:58;13.77;;;6.65;;
18681;SDS011;9471;51.168;4.154;2022-08-02T06:30:26;14.55;;;7.05;;
18681;SDS011;9471;51.168;4.154;2022-08-02T06:32:54;11.68;;;6.63;;
18681;SDS011;9471;51.168;4.154;2022-08-02T06:35:21;12.05;;;6.70;;
18681;SDS011;9471;51.168;4.154;2022-08-02T06:37:51;11.60;;;6.25;;
18681;SDS011;9471;51.168;4.154;2022-08-02T06:40:25;14.95;;;6.05;;
18681;SDS011;9471;51.168;4.154;2022-08-02T06:43:05;12.25;;;6.07;;
18681;SDS011;9471;51.168;4.154;2022-08-02T06:45:37;13.57;;;6.10;;
18681;SDS011;9471;51.168;4.154;2022-08-02T06:48:05;13.52;;;6.30;;
18681;SDS011;9471;51.168;4.154;2022-08-02T06:50:32;11.85;;;5.70;;
18681;SDS011;9471;51.168;4.154;2022-08-02T06:53:02;14.90;;;5.97;;
18681;SDS011;9471;51.168;4.154;2022-08-02T06:55:29;11.57;;;6.05;;
18681;SDS011;9471;51.168;4.154;2022-08-02T06:57:57;10.13;;;5.30;;
18681;SDS011;9471;51.168;4.154;2022-08-02T07:00:25;16.52;;;6.28;;
18681;SDS011;9471;51.168;4.154;2022-08-02T07:02:52;11.90;;;5.43;;
18681;SDS011;9471;51.168;4.154;2022-08-02T07:05:19;12.93;;;5.63;;
18681;SDS011;9471;51.168;4.154;2022-08-02T07:07:46;11.65;;;5.22;;
18681;SDS011;9471;51.168;4.154;2022-08-02T07:10:13;12.73;;;5.55;;
18681;SDS011;9471;51.168;4.154;2022-08-02T07:12:41;11.93;;;4.90;;
18681;SDS011;9471;51.168;4.154;2022-08-02T07:15:10;12.52;;;5.78;;
18681;SDS011;9471;51.168;4.154;2022-08-02T07:17:38;16.30;;;6.13;;
18681;SDS011;9471;51.168;4.154;2022-08-02T07:20:05;11.95;;;5.38;;
18681;SDS011;9471;51.168;4.154;2022-08-02T07:22:33;12.02;;;5.93;;
18681;SDS011;9471;51.168;4.154;2022-08-02T07:25:01;11.43;;;5.18;;
18681;SDS011;9471;51.168;4.154;2022-08-02T07:27:29;13.07;;;5.97;;
18681;SDS011;9471;51.168;4.154;2022-08-02T07:29:56;11.90;;;5.15;;
18681;SDS011;9471;51.168;4.154;2022-08-02T07:32:26;12.20;;;5.13;;
18681;SDS011;9471;51.168;4.154;2022-08-02T07:34:54;14.98;;;5.22;;
18681;SDS011;9471;51.168;4.154;2022-08-02T07:37:22;14.30;;;4.95;;
18681;SDS011;9471;51.168;4.154;2022-08-02T07:39:50;10.90;;;4.65;;
18681;SDS011;9471;51.168;4.154;2022-08-02T07:42:17;10.25;;;5.07;;
18681;SDS011;9471;51.168;4.154;2022-08-02T07:44:44;15.10;;;4.70;;
18681;SDS011;9471;51.168;4.154;2022-08-02T07:47:11;10.07;;;4.28;;
18681;SDS011;9471;51.168;4.154;2022-08-02T07:49:39;9.32;;;3.90;;
18681;SDS011;9471;51.168;4.154;2022-08-02T07:52:06;11.80;;;4.15;;
18681;SDS011;9471;51.168;4.154;2022-08-02T07:54:33;10.43;;;3.75;;
18681;SDS011;9471;51.168;4.154;2022-08-02T07:57:00;11.13;;;3.33;;
18681;SDS011;9471;51.168;4.154;2022-08-02T07:59:27;7.97;;;3.50;;
18681;SDS011;9471;51.168;4.154;2022-08-02T08:01:54;8.55;;;3.35;;
18681;SDS011;9471;51.168;4.154;2022-08-02T08:04:21;9.55;;;3.72;;
18681;SDS011;9471;51.168;4.154;2022-08-02T08:06:49;13.73;;;4.20;;
18681;SDS011;9471;51.168;4.154;2022-08-02T08:09:18;8.13;;;3.40;;
18681;SDS011;9471;51.168;4.154;2022-08-02T08:11:45;8.88;;;4.15;;
18681;SDS011;9471;51.168;4.154;2022-08-02T08:14:12;7.75;;;3.30;;
18681;SDS011;9471;51.168;4.154;2022-08-02T08:16:39;13.50;;;3.40;;
18681;SDS011;9471;51.168;4.154;2022-08-02T08:19:06;7.45;;;3.15;;
18681;SDS011;9471;51.168;4.154;2022-08-02T08:21:33;8.40;;;2.80;;
18681;SDS011;9471;51.168;4.154;2022-08-02T08:24:02;7.97;;;2.60;;
18681;SDS011;9471;51.168;4.154;2022-08-02T08:26:29;7.30;;;2.72;;
18681;SDS011;9471;51.168;4.154;2022-08-02T08:28:56;6.47;;;2.47;;
18681;SDS011;9471;51.168;4.154;2022-08-02T08:31:24;11.38;;;3.20;;
18681;SDS011;9471;51.168;4.154;2022-08-02T08:33:51;5.95;;;2.28;;
18681;SDS011;9471;51.168;4.154;2022-08-02T08:36:18;8.98;;;2.90;;
18681;SDS011;9471;51.168;4.154;2022-08-02T08:38:45;8.32;;;2.60;;
18681;SDS011;9471;51.168;4.154;2022-08-02T08:41:16;9.52;;;2.65;;
18681;SDS011;9471;51.168;4.154;2022-08-02T08:43:43;7.97;;;2.13;;
18681;SDS011;9471;51.168;4.154;2022-08-02T08:46:18;6.28;;;2.00;;
18681;SDS011;9471;51.168;4.154;2022-08-02T08:48:52;7.30;;;2.78;;
18681;SDS011;9471;51.168;4.154;2022-08-02T08:51:20;6.93;;;2.17;;
18681;SDS011;9471;51.168;4.154;2022-08-02T08:53:50;7.35;;;1.88;;
18681;SDS011;9471;51.168;4.154;2022-08-02T08:56:23;4.70;;;1.98;;
18681;SDS011;9471;51.168;4.154;2022-08-02T08:58:57;5.30;;;1.50;;
18681;SDS011;9471;51.168;4.154;2022-08-02T09:01:24;4.55;;;1.50;;
18681;SDS011;9471;51.168;4.154;2022-08-02T09:03:51;7.43;;;1.90;;
18681;SDS011;9471;51.168;4.154;2022-08-02T09:06:18;5.35;;;1.40;;
18681;SDS011;9471;51.168;4.154;2022-08-02T09:08:45;5.20;;;1.35;;
18681;SDS011;9471;51.168;4.154;2022-08-02T09:11:13;6.60;;;1.88;;
18681;SDS011;9471;51.168;4.154;2022-08-02T09:13:48;5.22;;;1.60;;
18681;SDS011;9471;51.168;4.154;2022-08-02T09:16:25;6.82;;;1.80;;
18681;SDS011;9471;51.168;4.154;2022-08-02T09:18:54;4.00;;;1.55;;
18681;SDS011;9471;51.168;4.154;2022-08-02T09:21:21;3.55;;;1.30;;
18681;SDS011;9471;51.168;4.154;2022-08-02T09:23:49;4.13;;;1.40;;
18681;SDS011;9471;51.168;4.154;2022-08-02T09:26:20;4.10;;;1.48;;
18681;SDS011;9471;51.168;4.154;2022-08-02T09:28:50;3.33;;;1.42;;
18681;SDS011;9471;51.168;4.154;2022-08-02T09:31:19;4.45;;;1.50;;
18681;SDS011;9471;51.168;4.154;2022-08-02T09:33:50;5.60;;;1.40;;
18681;SDS011;9471;51.168;4.154;2022-08-02T09:36:19;5.20;;;1.50;;
18681;SDS011;9471;51.168;4.154;2022-08-02T09:38:55;6.38;;;1.50;;
18681;SDS011;9471;51.168;4.154;2022-08-02T09:41:26;4.15;;;1.30;;
18681;SDS011;9471;51.168;4.154;2022-08-02T09:43:56;5.47;;;1.85;;
18681;SDS011;9471;51.168;4.154;2022-08-02T09:46:24;3.60;;;1.38;;
18681;SDS011;9471;51.168;4.154;2022-08-02T09:48:54;7.97;;;1.90;;
18681;SDS011;9471;51.168;4.154;2022-08-02T09:51:23;5.95;;;1.70;;
18681;SDS011;9471;51.168;4.154;2022-08-02T09:53:52;7.13;;;1.63;;
18681;SDS011;9471;51.168;4.154;2022-08-02T09:56:20;4.20;;;1.50;;
18681;SDS011;9471;51.168;4.154;2022-08-02T09:58:48;6.80;;;1.98;;
18681;SDS011;9471;51.168;4.154;2022-08-02T10:01:19;5.07;;;1.50;;
18681;SDS011;9471;51.168;4.154;2022-08-02T10:03:54;5.05;;;1.33;;
18681;SDS011;9471;51.168;4.154;2022-08-02T10:06:22;4.78;;;1.17;;
18681;SDS011;9471;51.168;4.154;2022-08-02T10:08:49;29.63;;;3.28;;
18681;SDS011;9471;51.168;4.154;2022-08-02T10:11:17;8.25;;;1.80;;
18681;SDS011;9471;51.168;4.154;2022-08-02T10:13:45;19.85;;;2.65;;
18681;SDS011;9471;51.168;4.154;2022-08-02T10:16:13;4.95;;;1.60;;
18681;SDS011;9471;51.168;4.154;2022-08-02T10:18:42;6.45;;;1.60;;
18681;SDS011;9471;51.168;4.154;2022-08-02T10:21:11;10.48;;;2.28;;
18681;SDS011;9471;51.168;4.154;2022-08-02T10:23:40;4.45;;;1.50;;
18681;SDS011;9471;51.168;4.154;2022-08-02T10:26:11;46.83;;;5.13;;
18681;SDS011;9471;51.168;4.154;2022-08-02T10:28:40;7.88;;;1.65;;
18681;SDS011;9471;51.168;4.154;2022-08-02T10:31:10;6.63;;;1.75;;
18681;SDS011;9471;51.168;4.154;2022-08-02T10:33:39;3.45;;;1.48;;
18681;SDS011;9471;51.168;4.154;2022-08-02T10:36:09;5.05;;;1.80;;
18681;SDS011;9471;51.168;4.154;2022-08-02T10:38:38;6.53;;;1.80;;
18681;SDS011;9471;51.168;4.154;2022-08-02T10:41:06;7.38;;;1.63;;
18681;SDS011;9471;51.168;4.154;2022-08-02T10:43:43;6.63;;;2.10;;
18681;SDS011;9471;51.168;4.154;2022-08-02T10:46:19;8.05;;;1.33;;
18681;SDS011;9471;51.168;4.154;2022-08-02T10:51:57;5.63;;;1.58;;
18681;SDS011;9471;51.168;4.154;2022-08-02T10:54:32;4.55;;;1.90;;
18681;SDS011;9471;51.168;4.154;2022-08-02T10:57:00;4.90;;;1.60;;
18681;SDS011;9471;51.168;4.154;2022-08-02T10:59:28;10.85;;;1.80;;
18681;SDS011;9471;51.168;4.154;2022-08-02T11:01:57;4.88;;;1.63;;
18681;SDS011;9471;51.168;4.154;2022-08-02T11:07:36;7.43;;;1.77;;
18681;SDS011;9471;51.168;4.154;2022-08-02T11:12:58;6.03;;;1.65;;
18681;SDS011;9471;51.168;4.154;2022-08-02T11:15:27;3.53;;;1.35;;
18681;SDS011;9471;51.168;4.154;2022-08-02T11:17:55;4.50;;;1.52;;
18681;SDS011;9471;51.168;4.154;2022-08-02T11:20:25;3.90;;;1.30;;
18681;SDS011;9471;51.168;4.154;2022-08-02T11:22:53;3.83;;;1.33;;
18681;SDS011;9471;51.168;4.154;2022-08-02T11:25:42;7.50;;;1.60;;
18681;SDS011;9471;51.168;4.154;2022-08-02T11:28:10;4.70;;;1.67;;
18681;SDS011;9471;51.168;4.154;2022-08-02T11:30:37;6.65;;;1.60;;
18681;SDS011;9471;51.168;4.154;2022-08-02T11:33:05;3.10;;;1.33;;
18681;SDS011;9471;51.168;4.154;2022-08-02T11:35:32;8.82;;;1.92;;
18681;SDS011;9471;51.168;4.154;2022-08-02T11:40:50;3.03;;;1.10;;
18681;SDS011;9471;51.168;4.154;2022-08-02T11:43:18;5.25;;;1.50;;
18681;SDS011;9471;51.168;4.154;2022-08-02T11:45:46;5.18;;;1.70;;
18681;SDS011;9471;51.168;4.154;2022-08-02T11:48:13;6.30;;;1.50;;
18681;SDS011;9471;51.168;4.154;2022-08-02T11:51:00;4.80;;;1.50;;
18681;SDS011;9471;51.168;4.154;2022-08-02T11:53:33;6.60;;;1.45;;
18681;SDS011;9471;51.168;4.154;2022-08-02T11:56:09;4.65;;;1.27;;
18681;SDS011;9471;51.168;4.154;2022-08-02T11:58:36;3.83;;;1.52;;
18681;SDS011;9471;51.168;4.154;2022-08-02T12:01:03;3.65;;;1.30;;
18681;SDS011;9471;51.168;4.154;2022-08-02T12:03:34;5.75;;;2.33;;
18681;SDS011;9471;51.168;4.154;2022-08-02T12:06:03;6.75;;;2.03;;
18681;SDS011;9471;51.168;4.154;2022-08-02T12:08:30;4.47;;;1.63;;
18681;SDS011;9471;51.168;4.154;2022-08-02T12:10:59;2.75;;;1.20;;
18681;SDS011;9471;51.168;4.154;2022-08-02T12:13:29;4.85;;;1.35;;
18681;SDS011;9471;51.168;4.154;2022-08-02T12:16:09;7.10;;;1.55;;
18681;SDS011;9471;51.168;4.154;2022-08-02T12:18:50;4.20;;;1.33;;
18681;SDS011;9471;51.168;4.154;2022-08-02T12:21:34;5.18;;;2.10;;
18681;SDS011;9471;51.168;4.154;2022-08-02T12:24:01;3.45;;;1.35;;
18681;SDS011;9471;51.168;4.154;2022-08-02T12:26:29;5.65;;;1.88;;
18681;SDS011;9471;51.168;4.154;2022-08-02T12:28:57;8.75;;;1.80;;
18681;SDS011;9471;51.168;4.154;2022-08-02T12:31:37;4.60;;;1.60;;
18681;SDS011;9471;51.168;4.154;2022-08-02T12:34:10;6.45;;;1.70;;
18681;SDS011;9471;51.168;4.154;2022-08-02T12:36:39;7.43;;;1.40;;
18681;SDS011;9471;51.168;4.154;2022-08-02T12:39:09;8.20;;;2.50;;
18681;SDS011;9471;51.168;4.154;2022-08-02T12:41:37;5.80;;;1.40;;
18681;SDS011;9471;51.168;4.154;2022-08-02T12:44:13;6.35;;;1.83;;
18681;SDS011;9471;51.168;4.154;2022-08-02T12:46:41;5.25;;;1.50;;
18681;SDS011;9471;51.168;4.154;2022-08-02T12:49:14;4.88;;;1.70;;
18681;SDS011;9471;51.168;4.154;2022-08-02T12:51:42;6.35;;;1.20;;
18681;SDS011;9471;51.168;4.154;2022-08-02T12:54:10;8.23;;;1.80;;
18681;SDS011;9471;51.168;4.154;2022-08-02T12:56:39;5.65;;;1.60;;
18681;SDS011;9471;51.168;4.154;2022-08-02T12:59:07;4.50;;;1.38;;
18681;SDS011;9471;51.168;4.154;2022-08-02T13:01:34;7.57;;;1.73;;
18681;SDS011;9471;51.168;4.154;2022-08-02T13:04:02;6.72;;;1.40;;
18681;SDS011;9471;51.168;4.154;2022-08-02T13:06:30;5.65;;;1.73;;
18681;SDS011;9471;51.168;4.154;2022-08-02T13:08:57;6.03;;;1.75;;
18681;SDS011;9471;51.168;4.154;2022-08-02T13:11:25;7.65;;;2.10;;
18681;SDS011;9471;51.168;4.154;2022-08-02T13:13:52;6.50;;;1.70;;
18681;SDS011;9471;51.168;4.154;2022-08-02T13:16:21;11.98;;;1.77;;
18681;SDS011;9471;51.168;4.154;2022-08-02T13:18:50;6.70;;;1.80;;
18681;SDS011;9471;51.168;4.154;2022-08-02T13:21:17;8.05;;;1.77;;
18681;SDS011;9471;51.168;4.154;2022-08-02T13:23:44;4.88;;;1.58;;
18681;SDS011;9471;51.168;4.154;2022-08-02T13:26:11;5.90;;;1.73;;
18681;SDS011;9471;51.168;4.154;2022-08-02T13:28:38;5.00;;;1.30;;
18681;SDS011;9471;51.168;4.154;2022-08-02T13:31:06;8.00;;;2.15;;
18681;SDS011;9471;51.168;4.154;2022-08-02T13:33:35;6.28;;;1.83;;
18681;SDS011;9471;51.168;4.154;2022-08-02T13:36:02;5.00;;;1.42;;
18681;SDS011;9471;51.168;4.154;2022-08-02T13:38:29;6.10;;;1.58;;
18681;SDS011;9471;51.168;4.154;2022-08-02T13:40:56;5.82;;;1.50;;
18681;SDS011;9471;51.168;4.154;2022-08-02T13:43:37;5.15;;;1.60;;
18681;SDS011;9471;51.168;4.154;2022-08-02T13:46:05;6.05;;;1.67;;
18681;SDS011;9471;51.168;4.154;2022-08-02T13:48:33;6.60;;;1.67;;
18681;SDS011;9471;51.168;4.154;2022-08-02T13:51:01;6.53;;;1.48;;
18681;SDS011;9471;51.168;4.154;2022-08-02T13:53:28;7.72;;;1.27;;
18681;SDS011;9471;51.168;4.154;2022-08-02T13:55:55;4.57;;;1.20;;
18681;SDS011;9471;51.168;4.154;2022-08-02T13:58:23;6.15;;;1.50;;
18681;SDS011;9471;51.168;4.154;2022-08-02T14:00:51;6.50;;;1.42;;
18681;SDS011;9471;51.168;4.154;2022-08-02T14:03:18;6.45;;;1.13;;
18681;SDS011;9471;51.168;4.154;2022-08-02T14:05:47;7.53;;;1.92;;
18681;SDS011;9471;51.168;4.154;2022-08-02T14:08:15;5.97;;;1.67;;
18681;SDS011;9471;51.168;4.154;2022-08-02T14:10:43;7.15;;;1.33;;
18681;SDS011;9471;51.168;4.154;2022-08-02T14:13:11;7.40;;;1.48;;
18681;SDS011;9471;51.168;4.154;2022-08-02T14:15:39;5.38;;;1.35;;
18681;SDS011;9471;51.168;4.154;2022-08-02T14:18:06;3.03;;;1.20;;
18681;SDS011;9471;51.168;4.154;2022-08-02T14:20:34;7.28;;;1.42;;
18681;SDS011;9471;51.168;4.154;2022-08-02T14:23:02;7.53;;;1.70;;
18681;SDS011;9471;51.168;4.154;2022-08-02T14:25:29;6.38;;;1.73;;
18681;SDS011;9471;51.168;4.154;2022-08-02T14:27:56;13.15;;;4.75;;
18681;SDS011;9471;51.168;4.154;2022-08-02T14:30:23;6.68;;;1.40;;
18681;SDS011;9471;51.168;4.154;2022-08-02T14:32:57;7.28;;;1.65;;
18681;SDS011;9471;51.168;4.154;2022-08-02T14:35:24;7.20;;;1.13;;
18681;SDS011;9471;51.168;4.154;2022-08-02T14:37:51;10.27;;;1.60;;
18681;SDS011;9471;51.168;4.154;2022-08-02T14:40:19;7.15;;;1.20;;
18681;SDS011;9471;51.168;4.154;2022-08-02T14:42:46;11.98;;;1.83;;
18681;SDS011;9471;51.168;4.154;2022-08-02T14:45:13;5.50;;;1.40;;
18681;SDS011;9471;51.168;4.154;2022-08-02T14:47:42;5.50;;;1.40;;
18681;SDS011;9471;51.168;4.154;2022-08-02T14:50:09;7.13;;;1.63;;
18681;SDS011;9471;51.168;4.154;2022-08-02T14:52:38;6.30;;;1.52;;
18681;SDS011;9471;51.168;4.154;2022-08-02T14:55:05;5.72;;;1.30;;
18681;SDS011;9471;51.168;4.154;2022-08-02T14:57:34;7.38;;;1.98;;
18681;SDS011;9471;51.168;4.154;2022-08-02T15:00:02;6.47;;;1.20;;
18681;SDS011;9471;51.168;4.154;2022-08-02T15:02:30;4.30;;;1.30;;
18681;SDS011;9471;51.168;4.154;2022-08-02T15:04:57;8.95;;;1.60;;
18681;SDS011;9471;51.168;4.154;2022-08-02T15:07:25;6.00;;;1.67;;
18681;SDS011;9471;51.168;4.154;2022-08-02T15:09:51;3.55;;;0.98;;
18681;SDS011;9471;51.168;4.154;2022-08-02T15:12:18;11.18;;;1.85;;
18681;SDS011;9471;51.168;4.154;2022-08-02T15:14:47;5.20;;;1.20;;
18681;SDS011;9471;51.168;4.154;2022-08-02T15:17:14;5.85;;;1.33;;
18681;SDS011;9471;51.168;4.154;2022-08-02T15:19:41;10.70;;;1.75;;